Time;durP1;ratioP1;P1;durP2;ratioP2;P2;SDS_P1;SDS_P2;PMS_P1;PMS_P2;Temp;Humidity;BMP_temperature;BMP_pressure;BME280_temperature;BME280_humidity;BME280_pressure;Samples;Min_cycle;Max_cycle;Signal;HPM_P1;HPM_P2
2022/04/11 00:00:47;;;;;;;;;;;;;;;;;;5046477;28;19908;-89
2022/04/11 00:03:35;;;;;;;;;;;;;;;;;;5071206;28;20305;-90
2022/04/11 00:06:04;;;;;;;;;;;;;;;;;;5054496;28;19984;-89
2022/04/11 00:08:30;;;;;;;;;;;;;;;;;;5058840;28;20003;-92
2022/04/11 00:11:02;;;;;;;;;;;;;;;;;;5056452;28;20030;-92
2022/04/11 00:13:28;;;;;;;;;;;;;;;;;;5037037;28;20432;-90
2022/04/11 00:16:03;;;;;;;;;;;;;;;;;;5070790;28;19981;-91
2022/04/11 00:18:28;;;;;;;;;;;;;;;;;;5068883;28;20859;-90
2022/04/11 00:21:14;;;;;;;;;;;;;;;;;;5054115;28;19951;-90
2022/04/11 00:23:51;;;;;;;;;;;;;;;;;;5054375;28;20061;-89
2022/04/11 00:26:17;;;;;;;;;;;;;;;;;;5062908;28;19990;-92
2022/04/11 00:28:46;;;;;;;;;;;;;;;;;;5071460;28;19928;-91
2022/04/11 00:31:37;;;;;;;;;;;;;;;;;;5051972;28;19926;-89
2022/04/11 00:34:12;;;;;;;;;;;;;;;;;;5068956;28;19976;-91
2022/04/11 00:36:53;;;;;;;;;;;;;;;;;;5063688;28;19984;-90
2022/04/11 00:39:20;;;;;;;;;;;;;;;;;;5066507;28;19913;-93
2022/04/11 00:41:52;;;;;;;;;;;;;;;;;;5064876;28;19913;-88
2022/04/11 00:44:22;;;;;;;;;;;;;;;;;;5055205;28;19920;-91
2022/04/11 00:46:53;;;;;;;;;;;;;;;;;;5067767;28;19922;-91
2022/04/11 00:49:18;;;;;;;;;;;;;;;;;;5067915;28;19913;-90
2022/04/11 00:52:03;;;;;;;;;;;;;;;;;;5067400;28;20450;-91
2022/04/11 00:54:40;;;;;;;;;;;;;;;;;;5065718;28;19955;-92
2022/04/11 00:57:07;;;;;;;;;;;;;;;;;;5053431;28;20107;-90
2022/04/11 00:59:39;;;;;;;;;;;;;;;;;;5054075;28;19928;-90
2022/04/11 01:02:11;;;;;;;;;;;;;;;;;;5062226;28;20006;-89
2022/04/11 01:04:53;;;;;;;;;;;;;;;;;;5057118;28;19921;-89
2022/04/11 01:07:22;;;;;;;;;;;;;;;;;;5065300;28;19917;-88
2022/04/11 01:09:51;;;;;;;;;;;;;;;;;;5049250;28;19921;-91
2022/04/11 01:12:22;;;;;;;;;;;;;;;;;;5058727;28;19975;-89
2022/04/11 01:15:11;;;;;;;;;;;;;;;;;;5052460;28;19913;-89
2022/04/11 01:17:38;;;;;;;;;;;;;;;;;;5033963;28;19912;-90
2022/04/11 01:20:12;;;;;;;;;;;;;;;;;;5037194;28;19956;-90
2022/04/11 01:22:38;;;;;;;;;;;;;;;;;;5047925;28;19917;-90
2022/04/11 01:25:08;;;;;;;;;;;;;;;;;;5035014;28;19928;-88
2022/04/11 01:27:34;;;;;;;;;;;;;;;;;;5036133;28;19917;-89
2022/04/11 01:29:59;;;;;;;;;;;;;;;;;;5040209;28;20031;-89
2022/04/11 01:32:30;;;;;;;;;;;;;;;;;;5018060;28;20008;-90
2022/04/11 01:34:56;;;;;;;;;;;;;;;;;;5022792;28;19939;-91
2022/04/11 01:37:21;;;;;;;;;;;;;;;;;;5036937;28;21737;-91
2022/04/11 01:39:47;;;;;;;;;;;;;;;;;;5021442;28;19916;-90
2022/04/11 01:42:36;;;;;;;;;;;;;;;;;;5050580;28;19931;-89
2022/04/11 01:45:04;;;;;;;;;;;;;;;;;;5032993;28;19913;-92
2022/04/11 01:47:37;;;;;;;;;;;;;;;;;;5052621;28;19916;-93
2022/04/11 01:50:22;;;;;;;;;;;;;;;;;;5027462;28;20132;-91
2022/04/11 01:52:48;;;;;;;;;;;;;;;;;;5014822;28;20332;-90
2022/04/11 01:55:13;;;;;;;;;;;;;;;;;;5015487;28;20023;-89
2022/04/11 02:01:06;;;;;;;;;;;;;;;;;;5030187;28;19925;-91
2022/04/11 02:03:37;;;;;;;;;;;;;;;;;;5016195;28;19925;-92
2022/04/11 02:06:11;;;;;;;;;;;;;;;;;;5031010;28;20001;-91
2022/04/11 02:11:32;;;;;;;;;;;;;;;;;;5025499;28;20060;-90
2022/04/11 02:14:01;;;;;;;;;;;;;;;;;;5015276;28;19921;-91
2022/04/11 02:16:48;;;;;;;;;;;;;;;;;;5030346;28;19921;-87
2022/04/11 02:19:17;;;;;;;;;;;;;;;;;;5017877;28;19913;-91
2022/04/11 02:21:51;;;;;;;;;;;;;;;;;;5028652;28;19913;-92
2022/04/11 02:24:17;;;;;;;;;;;;;;;;;;4997142;28;20008;-91
2022/04/11 02:26:43;;;;;;;;;;;;;;;;;;5013336;28;20469;-91
2022/04/11 02:29:14;;;;;;;;;;;;;;;;;;4993811;28;20345;-91
2022/04/11 02:32:01;;;;;;;;;;;;;;;;;;5008186;28;20377;-91
2022/04/11 02:34:37;;;;;;;;;;;;;;;;;;5010255;28;19980;-94
2022/04/11 02:37:05;;;;;;;;;;;;;;;;;;4992635;28;19921;-90
2022/04/11 02:39:39;;;;;;;;;;;;;;;;;;4995752;28;19918;-91
2022/04/11 02:42:06;;;;;;;;;;;;;;;;;;5014305;28;19948;-90
2022/04/11 02:44:41;;;;;;;;;;;;;;;;;;5013465;28;19953;-91
2022/04/11 02:47:30;;;;;;;;;;;;;;;;;;4955070;28;19913;-90
2022/04/11 02:49:56;;;;;;;;;;;;;;;;;;4997822;28;20277;-91
2022/04/11 02:52:29;;;;;;;;;;;;;;;;;;5014231;28;19921;-92
2022/04/11 02:55:15;;;;;;;;;;;;;;;;;;5001523;28;20023;-90
2022/04/11 02:57:46;;;;;;;;;;;;;;;;;;5009332;28;19917;-88
2022/04/11 03:00:18;;;;;;;;;;;;;;;;;;4984129;28;19928;-90
2022/04/11 03:02:52;;;;;;;;;;;;;;;;;;5006013;28;19913;-89
2022/04/11 03:05:35;;;;;;;;;;;;;;;;;;5032139;28;19931;-90
2022/04/11 03:08:00;;;;;;;;;;;;;;;;;;5015104;28;19918;-90
2022/04/11 03:10:51;;;;;;;;;;;;;;;;;;5015377;28;19928;-91
2022/04/11 03:13:37;;;;;;;;;;;;;;;;;;5024927;28;20040;-92
2022/04/11 03:16:23;;;;;;;;;;;;;;;;;;5031130;28;20032;-88
2022/04/11 03:18:57;;;;;;;;;;;;;;;;;;4997909;28;20438;-89
2022/04/11 03:21:36;;;;;;;;;;;;;;;;;;5031982;28;19917;-90
2022/04/11 03:24:02;;;;;;;;;;;;;;;;;;5001264;28;19971;-90
2022/04/11 03:26:50;;;;;;;;;;;;;;;;;;5017841;28;19913;-92
2022/04/11 03:29:42;;;;;;;;;;;;;;;;;;4984115;28;19928;-90
2022/04/11 03:32:40;;;;;;;;;;;;;;;;;;;;;
2022/04/11 03:35:31;;;;;;;;;;;;;;;;;;4970144;28;20336;-93
2022/04/11 03:38:10;;;;;;;;;;;;;;;;;;4962450;28;19914;-90
2022/04/11 03:40:47;;;;;;;;;;;;;;;;;;4958105;29;20084;-90
2022/04/11 03:43:33;;;;;;;;;;;;;;;;;;4955522;28;19925;-90
2022/04/11 03:46:14;;;;;;;;;;;;;;;;;;4933881;29;19918;-92
2022/04/11 03:48:59;;;;;;;;;;;;;;;;;;;;;
2022/04/11 03:51:39;;;;;;;;;;;;;;;;;;4943818;29;19982;-92
2022/04/11 03:54:59;;;;;;;;;;;;;;;;;;4945904;29;19932;-89
2022/04/11 03:57:41;;;;;;;;;;;;;;;;;;4983955;28;19917;-92
2022/04/11 04:00:24;;;;;;;;;;;;;;;;;;4963400;28;19921;-92
2022/04/11 04:02:52;;;;;;;;;;;;;;;;;;4969836;28;20328;-90
2022/04/11 04:05:19;;;;;;;;;;;;;;;;;;4993205;28;20324;-93
2022/04/11 04:07:58;;;;;;;;;;;;;;;;;;4989143;28;19985;-91
2022/04/11 04:10:29;;;;;;;;;;;;;;;;;;4998193;28;19960;-92
2022/04/11 04:12:58;;;;;;;;;;;;;;;;;;5020805;28;19948;-92
2022/04/11 04:16:20;;;;;;;;;;;;;;;;;;5003811;28;19914;-92
2022/04/11 04:19:02;;;;;;;;;;;;;;;;;;5003927;28;20022;-90
2022/04/11 04:22:09;;;;;;;;;;;;;;;;;;5002341;28;19928;-91
2022/04/11 04:24:50;;;;;;;;;;;;;;;;;;4979487;28;19913;-93
2022/04/11 04:27:29;;;;;;;;;;;;;;;;;;4969032;28;20031;-92
2022/04/11 04:49:35;;;;;;;;;;;;;;;;;;4907288;29;19915;-92
2022/04/11 04:55:56;;;;;;;;;;;;;;;;;;;;;
2022/04/11 05:41:39;;;;;;;;;;;;;;;;;;5057905;22;20020;-61
2022/04/11 05:44:08;;;;;;;;;;;;;;;;;;5029175;28;20439;-60
2022/04/11 05:46:35;;;;;;;;;;;;;;;;;;5065813;28;20412;-60
2022/04/11 05:49:01;;;;;;;;;;;;;;;;;;5049319;28;19920;-60
2022/04/11 05:51:28;;;;;;;;;;;;;;;;;;5066666;28;20012;-60
2022/04/11 05:53:56;;;;;;;;;;;;;;;;;;5048445;28;20581;-61
2022/04/11 05:56:21;;;;;;;;;;;;;;;;;;5050045;28;20319;-60
2022/04/11 05:58:49;;;;;;;;;;;;;;;;;;5067913;28;19920;-60
2022/04/11 06:01:14;;;;;;;;;;;;;;;;;;5066373;28;20446;-59
2022/04/11 06:03:42;;;;;;;;;;;;;;;;;;5048058;28;19950;-59
2022/04/11 06:06:07;;;;;;;;;;;;;;;;;;5046754;28;20496;-61
2022/04/11 06:08:33;;;;;;;;;;;;;;;;;;5068260;28;19916;-60
2022/04/11 06:10:58;;;;;;;;;;;;;;;;;;5051256;28;19993;-59
2022/04/11 06:13:23;;;;;;;;;;;;;;;;;;5047699;28;20019;-59
2022/04/11 06:19:05;;;;;;;;;;;;;;;;;;5069886;28;20694;-60
2022/04/11 06:21:30;;;;;;;;;;;;;;;;;;5070002;28;19916;-60
2022/04/11 06:23:55;;;;;;;;;;;;;;;;;;5043072;28;19924;-60
2022/04/11 06:29:36;;;;;;;;;;;;;;;;;;5070085;28;19923;-59
2022/04/11 06:32:04;;;;;;;;;;;;;;;;;;5051244;28;19920;-60
2022/04/11 06:37:49;;;;;;;;;;;;;;;;;;5065377;28;20053;-60
2022/04/11 06:40:14;;;;;;;;;;;;;;;;;;5035480;28;20667;-60
2022/04/11 06:42:39;;;;;;;;;;;;;;;;;;5069337;28;19931;-60
2022/04/11 06:45:07;;;;;;;;;;;;;;;;;;5049608;28;19981;-60
2022/04/11 06:47:32;;;;;;;;;;;;;;;;;;5051581;28;19920;-60
2022/04/11 06:49:58;;;;;;;;;;;;;;;;;;5049147;28;19916;-60
2022/04/11 06:52:23;;;;;;;;;;;;;;;;;;5069714;28;19928;-60
2022/04/11 06:55:07;;;;;;;;;;;;;;;;;;5034294;28;19924;-60
2022/04/11 06:57:35;;;;;;;;;;;;;;;;;;5051758;28;20612;-60
2022/04/11 07:00:03;;;;;;;;;;;;;;;;;;5049660;28;19920;-60
2022/04/11 07:02:28;;;;;;;;;;;;;;;;;;5047270;28;20371;-61
2022/04/11 07:04:55;;;;;;;;;;;;;;;;;;5048349;28;20436;-61
2022/04/11 07:07:21;;;;;;;;;;;;;;;;;;5068694;28;19927;-61
2022/04/11 07:09:46;;;;;;;;;;;;;;;;;;5032664;28;19999;-60
2022/04/11 07:12:11;;;;;;;;;;;;;;;;;;5069148;28;20394;-60
2022/04/11 07:14:54;;;;;;;;;;;;;;;;;;5047698;28;19935;-60
2022/04/11 07:17:19;;;;;;;;;;;;;;;;;;5067485;28;19927;-59
2022/04/11 07:19:44;;;;;;;;;;;;;;;;;;5029924;28;19916;-59
2022/04/11 07:22:09;;;;;;;;;;;;;;;;;;5068600;28;19927;-59
2022/04/11 07:24:35;;;;;;;;;;;;;;;;;;5068482;28;20338;-60
2022/04/11 07:27:00;;;;;;;;;;;;;;;;;;5066919;28;19921;-61
2022/04/11 07:29:27;;;;;;;;;;;;;;;;;;5033830;28;19924;-60
2022/04/11 07:31:52;;;;;;;;;;;;;;;;;;5066983;28;22113;-61
2022/04/11 07:34:18;;;;;;;;;;;;;;;;;;5068706;28;19979;-60
2022/04/11 07:37:02;;;;;;;;;;;;;;;;;;5047993;28;19931;-60
2022/04/11 07:39:29;;;;;;;;;;;;;;;;;;5048810;28;19976;-61
2022/04/11 07:41:54;;;;;;;;;;;;;;;;;;5033519;28;19925;-61
2022/04/11 07:44:20;;;;;;;;;;;;;;;;;;5031989;28;19996;-60
2022/04/11 07:46:45;;;;;;;;;;;;;;;;;;5067236;28;19936;-60
2022/04/11 07:49:13;;;;;;;;;;;;;;;;;;5049501;28;21946;-60
2022/04/11 07:51:48;;;;;;;;;;;;;;;;;;5066290;28;20398;-60
2022/04/11 07:54:13;;;;;;;;;;;;;;;;;;5018180;28;20042;-60
2022/04/11 07:59:29;;;;;;;;;;;;;;;;;;5068893;28;20387;-61
2022/04/11 08:01:57;;;;;;;;;;;;;;;;;;5050508;28;19973;-61
2022/04/11 08:04:22;;;;;;;;;;;;;;;;;;5067309;28;19928;-61
2022/04/11 08:06:48;;;;;;;;;;;;;;;;;;5066938;28;20454;-62
2022/04/11 08:09:14;;;;;;;;;;;;;;;;;;5042118;28;19924;-62
2022/04/11 08:11:39;;;;;;;;;;;;;;;;;;5049236;28;19920;-62
2022/04/11 08:14:05;;;;;;;;;;;;;;;;;;5048392;28;19920;-62
2022/04/11 08:16:30;;;;;;;;;;;;;;;;;;5032655;28;19949;-61
2022/04/11 08:18:55;;;;;;;;;;;;;;;;;;5067757;28;20413;-61
2022/04/11 08:21:21;;;;;;;;;;;;;;;;;;5064864;28;19930;-62
2022/04/11 08:23:47;;;;;;;;;;;;;;;;;;5048586;28;20445;-62
2022/04/11 08:26:12;;;;;;;;;;;;;;;;;;5032084;28;19938;-61
2022/04/11 08:28:37;;;;;;;;;;;;;;;;;;5047611;28;19928;-62
2022/04/11 08:34:37;;;;;;;;;;;;;;;;;;5066983;28;20001;-61
2022/04/11 08:37:06;;;;;;;;;;;;;;;;;;5067744;28;19961;-62
2022/04/11 08:43:06;;;;;;;;;;;;;;;;;;5067243;28;20093;-62
2022/04/11 08:45:32;;;;;;;;;;;;;;;;;;5046106;28;20014;-62
2022/04/11 08:47:57;;;;;;;;;;;;;;;;;;5028873;28;25222;-62
2022/04/11 08:50:24;;;;;;;;;;;;;;;;;;5048869;28;19973;-62
2022/04/11 08:52:49;;;;;;;;;;;;;;;;;;5066967;28;19931;-62
2022/04/11 08:55:23;;;;;;;;;;;;;;;;;;5045546;28;19916;-61
2022/04/11 08:57:49;;;;;;;;;;;;;;;;;;5067534;28;19930;-62
2022/04/11 09:00:15;;;;;;;;;;;;;;;;;;5046871;28;19916;-60
2022/04/11 09:02:41;;;;;;;;;;;;;;;;;;5048683;28;19924;-61
2022/04/11 09:07:52;;;;;;;;;;;;;;;;;;5052981;28;19922;-62
2022/04/11 09:10:18;;;;;;;;;;;;;;;;;;5036769;28;20496;-62
2022/04/11 09:12:45;;;;;;;;;;;;;;;;;;5049131;28;20330;-62
2022/04/11 09:15:13;;;;;;;;;;;;;;;;;;5047725;28;19951;-61
2022/04/11 09:17:39;;;;;;;;;;;;;;;;;;5048926;28;20599;-62
2022/04/11 09:20:07;;;;;;;;;;;;;;;;;;5048852;28;19922;-62
2022/04/11 09:22:35;;;;;;;;;;;;;;;;;;5033308;28;19925;-62
2022/04/11 09:25:00;;;;;;;;;;;;;;;;;;5047843;28;19924;-62
2022/04/11 09:27:27;;;;;;;;;;;;;;;;;;5065301;28;19927;-62
2022/04/11 09:29:52;;;;;;;;;;;;;;;;;;5047344;28;19930;-62
2022/04/11 09:32:20;;;;;;;;;;;;;;;;;;5048449;28;19973;-60
2022/04/11 09:38:02;;;;;;;;;;;;;;;;;;5065938;28;19923;-60
2022/04/11 09:40:30;;;;;;;;;;;;;;;;;;5045786;28;19920;-61
2022/04/11 09:42:55;;;;;;;;;;;;;;;;;;5066648;28;19935;-62
2022/04/11 09:45:22;;;;;;;;;;;;;;;;;;5066306;28;20335;-61
2022/04/11 09:51:05;;;;;;;;;;;;;;;;;;5066885;28;19969;-62
2022/04/11 09:53:32;;;;;;;;;;;;;;;;;;5032745;28;19969;-61
2022/04/11 09:55:58;;;;;;;;;;;;;;;;;;5067677;28;19916;-61
2022/04/11 09:58:23;;;;;;;;;;;;;;;;;;5046999;28;19931;-61
2022/04/11 10:00:49;;;;;;;;;;;;;;;;;;5066992;28;19920;-61
2022/04/11 10:03:16;;;;;;;;;;;;;;;;;;5031526;28;20158;-60
2022/04/11 10:05:47;;;;;;;;;;;;;;;;;;5065305;28;19916;-61
2022/04/11 10:08:14;;;;;;;;;;;;;;;;;;5065901;28;20406;-61
2022/04/11 10:10:42;;;;;;;;;;;;;;;;;;5031799;28;19920;-60
2022/04/11 10:13:09;;;;;;;;;;;;;;;;;;5065638;28;19924;-62
2022/04/11 10:15:34;;;;;;;;;;;;;;;;;;5047054;28;19955;-61
2022/04/11 10:18:02;;;;;;;;;;;;;;;;;;5066076;28;21533;-61
2022/04/11 10:20:28;;;;;;;;;;;;;;;;;;5045541;28;19920;-61
2022/04/11 10:22:53;;;;;;;;;;;;;;;;;;5047820;28;20396;-60
2022/04/11 10:25:19;;;;;;;;;;;;;;;;;;5066959;28;19924;-60
2022/04/11 10:27:45;;;;;;;;;;;;;;;;;;5031887;28;19939;-61
2022/04/11 10:30:12;;;;;;;;;;;;;;;;;;5062456;28;19924;-60
2022/04/11 10:32:41;;;;;;;;;;;;;;;;;;5067271;28;20378;-59
2022/04/11 10:35:12;;;;;;;;;;;;;;;;;;5047333;28;19927;-61
2022/04/11 10:37:40;;;;;;;;;;;;;;;;;;5048691;28;19938;-60
2022/04/11 10:40:05;;;;;;;;;;;;;;;;;;5047349;28;19924;-60
2022/04/11 10:42:31;;;;;;;;;;;;;;;;;;5048551;28;20222;-61
2022/04/11 10:44:56;;;;;;;;;;;;;;;;;;5049246;28;19920;-59
2022/04/11 10:47:26;;;;;;;;;;;;;;;;;;5049960;28;19945;-60
2022/04/11 10:49:55;;;;;;;;;;;;;;;;;;5066177;28;19916;-60
2022/04/11 10:52:23;;;;;;;;;;;;;;;;;;5046347;28;21042;-60
2022/04/11 10:54:51;;;;;;;;;;;;;;;;;;5048238;28;20493;-60
2022/04/11 10:57:16;;;;;;;;;;;;;;;;;;5070569;28;19916;-60
2022/04/11 10:59:50;;;;;;;;;;;;;;;;;;5069786;28;19921;-59
2022/04/11 11:02:15;;;;;;;;;;;;;;;;;;5069166;28;19919;-60
2022/04/11 11:04:43;;;;;;;;;;;;;;;;;;5068455;28;20001;-60
2022/04/11 11:10:25;;;;;;;;;;;;;;;;;;5058412;28;19919;-60
2022/04/11 11:12:50;;;;;;;;;;;;;;;;;;5068903;28;19921;-60
2022/04/11 11:15:16;;;;;;;;;;;;;;;;;;5069032;28;19927;-60
2022/04/11 11:17:59;;;;;;;;;;;;;;;;;;5052087;28;19916;-60
2022/04/11 11:20:24;;;;;;;;;;;;;;;;;;5067629;28;19920;-59
2022/04/11 11:22:52;;;;;;;;;;;;;;;;;;5034137;28;20556;-59
2022/04/11 11:25:17;;;;;;;;;;;;;;;;;;5067659;28;19923;-60
2022/04/11 11:27:45;;;;;;;;;;;;;;;;;;5051723;28;19916;-59
2022/04/11 11:30:13;;;;;;;;;;;;;;;;;;5066325;28;20407;-59
2022/04/11 11:32:38;;;;;;;;;;;;;;;;;;5068906;28;19920;-60
2022/04/11 11:35:05;;;;;;;;;;;;;;;;;;5065421;28;19943;-60
2022/04/11 11:37:33;;;;;;;;;;;;;;;;;;5050962;28;19927;-62
2022/04/11 11:39:59;;;;;;;;;;;;;;;;;;5066852;28;19935;-59
2022/04/11 11:42:24;;;;;;;;;;;;;;;;;;5047215;28;20020;-60
2022/04/11 11:44:50;;;;;;;;;;;;;;;;;;5038608;28;19921;-59
2022/04/11 11:47:15;;;;;;;;;;;;;;;;;;5018235;28;20285;-59
2022/04/11 11:49:43;;;;;;;;;;;;;;;;;;5034866;28;20427;-59
2022/04/11 11:52:08;;;;;;;;;;;;;;;;;;5054080;28;20051;-59
2022/04/11 11:54:34;;;;;;;;;;;;;;;;;;5046969;28;19925;-60
2022/04/11 11:56:59;;;;;;;;;;;;;;;;;;5036763;28;20395;-59
2022/04/11 11:59:25;;;;;;;;;;;;;;;;;;5052316;28;19930;-59
2022/04/11 12:04:35;;;;;;;;;;;;;;;;;;5053089;28;20072;-59
2022/04/11 12:07:02;;;;;;;;;;;;;;;;;;5036155;28;20853;-59
2022/04/11 12:09:28;;;;;;;;;;;;;;;;;;5055659;28;20039;-59
2022/04/11 12:11:53;;;;;;;;;;;;;;;;;;5055272;28;19940;-59
2022/04/11 12:14:19;;;;;;;;;;;;;;;;;;5033717;28;20303;-58
2022/04/11 12:16:46;;;;;;;;;;;;;;;;;;5019936;28;20014;-59
2022/04/11 12:19:15;;;;;;;;;;;;;;;;;;5036892;28;19921;-60
2022/04/11 12:21:44;;;;;;;;;;;;;;;;;;5054236;28;20015;-60
2022/04/11 12:27:25;;;;;;;;;;;;;;;;;;5054511;28;19924;-59
2022/04/11 12:29:50;;;;;;;;;;;;;;;;;;5035629;28;20398;-58
2022/04/11 12:32:18;;;;;;;;;;;;;;;;;;5054089;28;19916;-60
2022/04/11 12:34:44;;;;;;;;;;;;;;;;;;5053765;28;20719;-59
2022/04/11 12:37:11;;;;;;;;;;;;;;;;;;5020465;28;19920;-59
2022/04/11 12:39:37;;;;;;;;;;;;;;;;;;5034524;28;19927;-59
2022/04/11 12:42:02;;;;;;;;;;;;;;;;;;5016590;28;19925;-60
2022/04/11 12:44:30;;;;;;;;;;;;;;;;;;5049042;28;19932;-59
2022/04/11 12:50:17;;;;;;;;;;;;;;;;;;5066638;28;19928;-61
2022/04/11 12:52:43;;;;;;;;;;;;;;;;;;5046306;28;19980;-60
2022/04/11 12:55:08;;;;;;;;;;;;;;;;;;5048732;28;19925;-59
2022/04/11 12:57:34;;;;;;;;;;;;;;;;;;5066562;28;19973;-60
2022/04/11 12:59:59;;;;;;;;;;;;;;;;;;5031514;28;19939;-59
2022/04/11 13:02:28;;;;;;;;;;;;;;;;;;5068208;28;20454;-59
2022/04/11 13:04:53;;;;;;;;;;;;;;;;;;5046265;28;19916;-60
2022/04/11 13:07:18;;;;;;;;;;;;;;;;;;5033238;28;19966;-59
2022/04/11 13:09:46;;;;;;;;;;;;;;;;;;5066393;28;20296;-59
2022/04/11 13:12:12;;;;;;;;;;;;;;;;;;5046932;28;19932;-59
2022/04/11 13:14:40;;;;;;;;;;;;;;;;;;5066666;28;20188;-60
2022/04/11 13:19:49;;;;;;;;;;;;;;;;;;5046760;28;20066;-59
2022/04/11 13:22:15;;;;;;;;;;;;;;;;;;5066595;28;20410;-59
2022/04/11 13:27:57;;;;;;;;;;;;;;;;;;5066870;28;19927;-59
2022/04/11 13:30:25;;;;;;;;;;;;;;;;;;5049116;28;19916;-59
2022/04/11 13:32:50;;;;;;;;;;;;;;;;;;5065453;28;19923;-60
2022/04/11 13:35:16;;;;;;;;;;;;;;;;;;5047885;28;20633;-60
2022/04/11 13:37:43;;;;;;;;;;;;;;;;;;5031562;28;19925;-59
2022/04/11 13:40:09;;;;;;;;;;;;;;;;;;5047688;28;19923;-60
2022/04/11 13:42:34;;;;;;;;;;;;;;;;;;5029715;28;19928;-60
2022/04/11 13:44:59;;;;;;;;;;;;;;;;;;5046529;28;20477;-60
2022/04/11 13:47:24;;;;;;;;;;;;;;;;;;5029175;28;20248;-60
2022/04/11 13:49:50;;;;;;;;;;;;;;;;;;5049012;28;20675;-60
2022/04/11 13:52:20;;;;;;;;;;;;;;;;;;5066350;28;20887;-60
2022/04/11 13:54:46;;;;;;;;;;;;;;;;;;5031376;28;19916;-59
2022/04/11 13:57:11;;;;;;;;;;;;;;;;;;5031936;28;21307;-60
2022/04/11 13:59:38;;;;;;;;;;;;;;;;;;5029809;28;19958;-59
2022/04/11 14:02:05;;;;;;;;;;;;;;;;;;5049085;28;19916;-60
2022/04/11 14:04:31;;;;;;;;;;;;;;;;;;5047591;28;19938;-60
2022/04/11 14:06:58;;;;;;;;;;;;;;;;;;5047072;28;20019;-60
2022/04/11 14:09:24;;;;;;;;;;;;;;;;;;5045159;28;19925;-60
2022/04/11 14:11:49;;;;;;;;;;;;;;;;;;5064825;28;20382;-59
2022/04/11 14:14:14;;;;;;;;;;;;;;;;;;5047835;28;20001;-60
2022/04/11 14:16:43;;;;;;;;;;;;;;;;;;5044766;28;19928;-60
2022/04/11 14:19:11;;;;;;;;;;;;;;;;;;5065699;28;20002;-59
2022/04/11 14:21:38;;;;;;;;;;;;;;;;;;5044254;28;19924;-59
2022/04/11 14:24:06;;;;;;;;;;;;;;;;;;5043153;28;22122;-60
2022/04/11 14:26:31;;;;;;;;;;;;;;;;;;5066098;28;19916;-59
2022/04/11 14:28:59;;;;;;;;;;;;;;;;;;5030860;28;19912;-58
2022/04/11 14:31:24;;;;;;;;;;;;;;;;;;5049009;28;20014;-59
2022/04/11 14:33:52;;;;;;;;;;;;;;;;;;5049397;28;20336;-59
2022/04/11 14:36:22;;;;;;;;;;;;;;;;;;5065465;28;20375;-59
2022/04/11 14:42:04;;;;;;;;;;;;;;;;;;5068519;28;19973;-59
2022/04/11 14:44:32;;;;;;;;;;;;;;;;;;5048690;28;20014;-58
2022/04/11 14:47:02;;;;;;;;;;;;;;;;;;5066635;28;19920;-58
2022/04/11 14:49:35;;;;;;;;;;;;;;;;;;5048214;28;19969;-58
2022/04/11 14:52:00;;;;;;;;;;;;;;;;;;5035302;28;20024;-58
2022/04/11 14:54:31;;;;;;;;;;;;;;;;;;5049724;28;19994;-58
2022/04/11 14:56:56;;;;;;;;;;;;;;;;;;5050040;28;19920;-58
2022/04/11 14:59:21;;;;;;;;;;;;;;;;;;5068240;28;21916;-58
2022/04/11 15:01:47;;;;;;;;;;;;;;;;;;5070101;28;19926;-59
2022/04/11 15:04:12;;;;;;;;;;;;;;;;;;5069327;28;20489;-58
2022/04/11 15:06:38;;;;;;;;;;;;;;;;;;5051030;28;19921;-58
2022/04/11 15:09:03;;;;;;;;;;;;;;;;;;5069164;28;19942;-58
2022/04/11 15:11:29;;;;;;;;;;;;;;;;;;5069613;28;19993;-58
2022/04/11 15:13:55;;;;;;;;;;;;;;;;;;5049860;28;20376;-60
2022/04/11 15:16:23;;;;;;;;;;;;;;;;;;5051206;28;19920;-59
2022/04/11 15:18:49;;;;;;;;;;;;;;;;;;5066438;28;19916;-60
2022/04/11 15:21:17;;;;;;;;;;;;;;;;;;5049676;28;19924;-59
2022/04/11 15:23:42;;;;;;;;;;;;;;;;;;5031471;28;19927;-59
2022/04/11 15:26:07;;;;;;;;;;;;;;;;;;5049942;28;19949;-59
2022/04/11 15:28:33;;;;;;;;;;;;;;;;;;5046028;28;19977;-60
2022/04/11 15:31:03;;;;;;;;;;;;;;;;;;5047928;28;19920;-59
2022/04/11 15:33:28;;;;;;;;;;;;;;;;;;5049670;28;19950;-60
2022/04/11 15:35:54;;;;;;;;;;;;;;;;;;5066050;28;19920;-59
2022/04/11 15:38:20;;;;;;;;;;;;;;;;;;5050194;28;19920;-61
2022/04/11 15:40:45;;;;;;;;;;;;;;;;;;5029663;28;19920;-59
2022/04/11 15:43:10;;;;;;;;;;;;;;;;;;5067242;28;19958;-59
2022/04/11 15:45:36;;;;;;;;;;;;;;;;;;5047582;28;19935;-58
2022/04/11 15:48:01;;;;;;;;;;;;;;;;;;5067910;28;19916;-59
2022/04/11 15:50:32;;;;;;;;;;;;;;;;;;5066907;28;19974;-59
2022/04/11 15:53:00;;;;;;;;;;;;;;;;;;5065131;28;19930;-59
2022/04/11 15:55:25;;;;;;;;;;;;;;;;;;5065741;28;19920;-58
2022/04/11 15:57:53;;;;;;;;;;;;;;;;;;5067385;28;20459;-59
2022/04/11 16:00:19;;;;;;;;;;;;;;;;;;5067441;28;19921;-58
2022/04/11 16:02:45;;;;;;;;;;;;;;;;;;5065406;28;20437;-62
2022/04/11 16:05:11;;;;;;;;;;;;;;;;;;5068035;28;20410;-59
2022/04/11 16:07:36;;;;;;;;;;;;;;;;;;5048785;28;20412;-59
2022/04/11 16:10:01;;;;;;;;;;;;;;;;;;5067166;28;19927;-58
2022/04/11 16:12:27;;;;;;;;;;;;;;;;;;5047779;28;20019;-59
2022/04/11 16:14:54;;;;;;;;;;;;;;;;;;5067316;28;19939;-59
2022/04/11 16:17:22;;;;;;;;;;;;;;;;;;5064445;28;19931;-58
2022/04/11 16:23:03;;;;;;;;;;;;;;;;;;5063861;28;19930;-58
2022/04/11 16:25:31;;;;;;;;;;;;;;;;;;5065756;28;19973;-60
2022/04/11 16:28:00;;;;;;;;;;;;;;;;;;5066029;28;19916;-60
2022/04/11 16:30:25;;;;;;;;;;;;;;;;;;5030560;28;19924;-59
2022/04/11 16:32:53;;;;;;;;;;;;;;;;;;5031229;28;19946;-59
2022/04/11 16:35:18;;;;;;;;;;;;;;;;;;5043285;28;19990;-59
2022/04/11 16:37:43;;;;;;;;;;;;;;;;;;5043174;28;20140;-58
2022/04/11 16:40:31;;;;;;;;;;;;;;;;;;5066815;28;19927;-59
2022/04/11 16:42:58;;;;;;;;;;;;;;;;;;5031914;28;19928;-60
2022/04/11 16:45:23;;;;;;;;;;;;;;;;;;5031624;28;20009;-58
2022/04/11 16:47:54;;;;;;;;;;;;;;;;;;5049456;28;20046;-61
2022/04/11 16:50:21;;;;;;;;;;;;;;;;;;5065617;28;20021;-60
2022/04/11 16:52:51;;;;;;;;;;;;;;;;;;5046204;28;19920;-59
2022/04/11 16:58:35;;;;;;;;;;;;;;;;;;5067122;28;20024;-59
2022/04/11 17:01:01;;;;;;;;;;;;;;;;;;5065649;28;20341;-59
2022/04/11 17:03:29;;;;;;;;;;;;;;;;;;5046481;28;19932;-58
2022/04/11 17:05:56;;;;;;;;;;;;;;;;;;5049468;28;19917;-58
2022/04/11 17:08:24;;;;;;;;;;;;;;;;;;5067621;28;20287;-59
2022/04/11 17:10:50;;;;;;;;;;;;;;;;;;5066117;28;19916;-58
2022/04/11 17:13:17;;;;;;;;;;;;;;;;;;5048726;28;19976;-59
2022/04/11 17:18:32;;;;;;;;;;;;;;;;;;5067862;28;19916;-59
2022/04/11 17:20:58;;;;;;;;;;;;;;;;;;5048038;28;19928;-59
2022/04/11 17:23:23;;;;;;;;;;;;;;;;;;5067191;28;19931;-58
2022/04/11 17:25:49;;;;;;;;;;;;;;;;;;5049340;28;19920;-59
2022/04/11 17:28:17;;;;;;;;;;;;;;;;;;5049227;28;19916;-59
2022/04/11 17:30:42;;;;;;;;;;;;;;;;;;5048509;28;20058;-59
2022/04/11 17:33:07;;;;;;;;;;;;;;;;;;5049288;28;19927;-59
2022/04/11 17:35:33;;;;;;;;;;;;;;;;;;5048125;28;19962;-59
2022/04/11 17:38:00;;;;;;;;;;;;;;;;;;5066210;28;20814;-59
2022/04/11 17:40:28;;;;;;;;;;;;;;;;;;5066611;28;19931;-59
2022/04/11 17:42:54;;;;;;;;;;;;;;;;;;5066882;28;20072;-60
2022/04/11 17:45:19;;;;;;;;;;;;;;;;;;5047634;28;19924;-58
2022/04/11 17:47:45;;;;;;;;;;;;;;;;;;5067142;28;19923;-61
2022/04/11 17:50:12;;;;;;;;;;;;;;;;;;5048378;28;19920;-60
2022/04/11 17:52:37;;;;;;;;;;;;;;;;;;5031594;28;20105;-59
2022/04/11 17:55:05;;;;;;;;;;;;;;;;;;5048272;28;19916;-59
2022/04/11 17:57:33;;;;;;;;;;;;;;;;;;5047905;28;19916;-60
2022/04/11 17:59:59;;;;;;;;;;;;;;;;;;5046481;28;19920;-59
2022/04/11 18:02:27;;;;;;;;;;;;;;;;;;5045200;28;19929;-60
2022/04/11 18:04:52;;;;;;;;;;;;;;;;;;5068935;28;19920;-60
2022/04/11 18:07:20;;;;;;;;;;;;;;;;;;5069120;28;19920;-61
2022/04/11 18:09:45;;;;;;;;;;;;;;;;;;5051524;28;19962;-60
2022/04/11 18:12:11;;;;;;;;;;;;;;;;;;5050626;28;19932;-59
2022/04/11 18:14:39;;;;;;;;;;;;;;;;;;5032093;28;19919;-59
2022/04/11 18:17:04;;;;;;;;;;;;;;;;;;5068677;28;19920;-59
2022/04/11 18:19:29;;;;;;;;;;;;;;;;;;5050909;28;19958;-59
2022/04/11 18:21:55;;;;;;;;;;;;;;;;;;5049644;28;20280;-58
2022/04/11 18:24:21;;;;;;;;;;;;;;;;;;5067941;28;20890;-58
2022/04/11 18:26:48;;;;;;;;;;;;;;;;;;5069770;28;19915;-59
2022/04/11 18:32:13;;;;;;;;;;;;;;;;;;5038746;28;20512;-58
2022/04/11 18:34:39;;;;;;;;;;;;;;;;;;5050621;28;19928;-59
2022/04/11 18:37:06;;;;;;;;;;;;;;;;;;5047653;28;20277;-59
2022/04/11 18:39:32;;;;;;;;;;;;;;;;;;5049479;28;20830;-59
2022/04/11 18:42:00;;;;;;;;;;;;;;;;;;5052085;28;21451;-60
2022/04/11 18:44:25;;;;;;;;;;;;;;;;;;5067604;28;19935;-59
2022/04/11 18:46:56;;;;;;;;;;;;;;;;;;5036026;28;19926;-59
2022/04/11 18:49:21;;;;;;;;;;;;;;;;;;5038688;28;20378;-60
2022/04/11 18:55:03;;;;;;;;;;;;;;;;;;5069570;28;19931;-59
2022/04/11 18:57:29;;;;;;;;;;;;;;;;;;5069322;28;19920;-60
2022/04/11 18:59:54;;;;;;;;;;;;;;;;;;5068029;28;19920;-61
2022/04/11 19:02:20;;;;;;;;;;;;;;;;;;5049884;28;20345;-60
2022/04/11 19:04:45;;;;;;;;;;;;;;;;;;5067476;28;19955;-59
2022/04/11 19:07:11;;;;;;;;;;;;;;;;;;5033860;28;19956;-60
2022/04/11 19:09:36;;;;;;;;;;;;;;;;;;5050185;28;20276;-60
2022/04/11 19:12:06;;;;;;;;;;;;;;;;;;5052181;28;20457;-59
2022/04/11 19:14:34;;;;;;;;;;;;;;;;;;5067580;28;19920;-59
2022/04/11 19:16:59;;;;;;;;;;;;;;;;;;5068772;28;19971;-59
2022/04/11 19:19:24;;;;;;;;;;;;;;;;;;5068372;28;19944;-59